Terminal Aerodrome Forecast
Issued by NWS Topeka, KS

Home | Current Version | Previous Version | Graphics & Text | Print | Product List | Glossary On
Versions: 1 2 3 4 5 6 7 8 9 10 11 12 13 14 15 16
267
FTUS43 KTOP 211120
TAFTOP
TAF
KTOP 211120Z 2112/2212 19004KT P6SM SKC WS016/23040KT
     FM211400 20012KT P6SM SKC
     FM211800 19012G18KT P6SM SKC
     FM220000 19011KT P6SM SKC=

USA.gov is the U.S. government's official web portal to all federal, state and local government web resources and services.